createdAt,value
2022-09-22T00:01:28.808Z,2.88
2022-09-22T00:04:00.245Z,2.67
2022-09-22T00:06:31.840Z,2.78
2022-09-22T00:09:01.321Z,2.75
2022-09-22T00:11:33.318Z,2.88
2022-09-22T00:14:06.965Z,2.90
2022-09-22T00:16:39.522Z,2.17
2022-09-22T00:19:09.323Z,2.22
2022-09-22T00:21:36.798Z,2.05
2022-09-22T00:24:07.283Z,3.08
2022-09-22T00:26:35.758Z,1.88
2022-09-22T00:29:03.459Z,2.50
2022-09-22T00:31:31.186Z,1.75
2022-09-22T00:33:58.338Z,2.25
2022-09-22T00:36:27.825Z,2.35
2022-09-22T00:38:56.935Z,2.47
2022-09-22T00:41:32.337Z,2.05
2022-09-22T00:44:18.177Z,1.70
2022-09-22T00:46:51.256Z,2.47
2022-09-22T00:49:27.342Z,1.70
2022-09-22T00:51:54.188Z,2.50
2022-09-22T00:54:21.004Z,2.40
2022-09-22T00:57:09.172Z,1.85
2022-09-22T00:59:37.385Z,2.15
2022-09-22T01:02:04.522Z,1.92
2022-09-22T01:04:31.589Z,1.85
2022-09-22T01:07:00.780Z,2.90
2022-09-22T01:09:32.930Z,2.08
2022-09-22T01:12:04.111Z,2.75
2022-09-22T01:15:20.048Z,1.77
2022-09-22T01:18:12.848Z,1.80
2022-09-22T01:21:20.445Z,1.98
2022-09-22T01:24:08.013Z,2.03
2022-09-22T01:26:42.870Z,1.48
2022-09-22T01:29:54.866Z,2.15
2022-09-22T01:32:33.177Z,1.83
2022-09-22T01:35:24.020Z,2.35
2022-09-22T01:38:04.249Z,3.35
2022-09-22T01:40:42.926Z,2.28
2022-09-22T01:43:28.160Z,1.83
2022-09-22T01:45:55.514Z,2.70
2022-09-22T01:48:31.266Z,2.15
2022-09-22T01:51:14.024Z,2.08
2022-09-22T01:53:48.727Z,2.30
2022-09-22T01:56:18.695Z,1.50
2022-09-22T01:58:52.548Z,2.42
2022-09-22T02:01:27.274Z,2.05
2022-09-22T02:04:22.140Z,2.58
2022-09-22T02:06:59.820Z,1.98
2022-09-22T02:09:31.823Z,2.20
2022-09-22T02:11:59.583Z,2.58
2022-09-22T02:14:26.987Z,2.33
2022-09-22T02:16:54.543Z,2.28
2022-09-22T02:19:33.906Z,1.58
2022-09-22T02:22:00.788Z,1.88
2022-09-22T02:24:37.593Z,3.28
2022-09-22T02:27:27.383Z,2.08
2022-09-22T02:30:04.381Z,2.97
2022-09-22T02:32:35.718Z,1.77
2022-09-22T02:35:02.763Z,1.85
2022-09-22T02:38:05.634Z,1.77
2022-09-22T02:41:03.810Z,1.85
2022-09-22T02:43:59.576Z,1.90
2022-09-22T02:46:38.863Z,1.25
2022-09-22T02:49:15.853Z,1.83
2022-09-22T02:51:43.435Z,2.13
2022-09-22T02:54:10.162Z,1.50
2022-09-22T02:56:36.886Z,1.85
2022-09-22T02:59:03.662Z,1.60
2022-09-22T03:01:31.011Z,2.50
2022-09-22T03:03:57.810Z,1.48
2022-09-22T03:06:24.506Z,1.63
2022-09-22T03:08:51.220Z,1.60
2022-09-22T03:11:17.962Z,2.35
2022-09-22T03:13:44.709Z,1.67
2022-09-22T03:16:11.550Z,2.13
2022-09-22T03:18:38.418Z,2.03
2022-09-22T03:21:05.310Z,1.52
2022-09-22T03:23:32.088Z,1.65
2022-09-22T03:25:58.799Z,3.50
2022-09-22T03:28:25.666Z,3.17
2022-09-22T03:30:52.390Z,1.33
2022-09-22T03:33:19.174Z,2.42
2022-09-22T03:35:45.917Z,2.03
2022-09-22T03:38:12.619Z,1.67
2022-09-22T03:40:39.495Z,2.05
2022-09-22T03:43:06.398Z,2.25
2022-09-22T03:45:33.122Z,1.65
2022-09-22T03:48:00.127Z,1.77
2022-09-22T03:50:28.285Z,2.10
2022-09-22T03:52:55.288Z,2.03
2022-09-22T03:55:22.016Z,1.58
2022-09-22T03:57:48.712Z,1.85
2022-09-22T04:00:16.702Z,1.98
2022-09-22T04:02:43.741Z,1.90
2022-09-22T04:05:11.646Z,1.42
2022-09-22T04:07:38.953Z,1.95
2022-09-22T04:10:06.272Z,2.00
2022-09-22T04:12:33.106Z,2.03
2022-09-22T04:15:00.044Z,2.17
2022-09-22T04:17:26.892Z,2.00
2022-09-22T04:19:55.211Z,3.47
2022-09-22T04:22:22.020Z,2.33
2022-09-22T04:24:48.752Z,3.40
2022-09-22T04:27:19.939Z,4.07
2022-09-22T04:29:47.487Z,2.45
2022-09-22T04:32:14.552Z,2.17
2022-09-22T04:34:41.709Z,1.75
2022-09-22T04:37:09.747Z,2.53
2022-09-22T04:39:36.941Z,2.88
2022-09-22T04:42:04.516Z,2.85
2022-09-22T04:44:35.016Z,3.25
2022-09-22T04:47:02.792Z,2.47
2022-09-22T04:49:29.519Z,3.63
2022-09-22T04:51:56.542Z,2.08
2022-09-22T04:54:23.287Z,3.20
2022-09-22T04:56:50.013Z,2.65
2022-09-22T04:59:16.737Z,2.72
2022-09-22T05:01:44.394Z,1.95
2022-09-22T05:04:11.659Z,2.88
2022-09-22T05:06:38.941Z,2.65
2022-09-22T05:09:05.809Z,2.95
2022-09-22T05:11:32.769Z,1.90
2022-09-22T05:13:59.530Z,7.47
2022-09-22T05:16:26.619Z,3.13
2022-09-22T05:18:53.678Z,2.83
2022-09-22T05:21:20.419Z,3.47
2022-09-22T05:23:47.472Z,2.15
2022-09-22T05:26:15.212Z,3.60
2022-09-22T05:28:42.089Z,3.72
2022-09-22T05:31:08.929Z,2.80
2022-09-22T05:33:35.771Z,2.70
2022-09-22T05:36:03.044Z,3.60
2022-09-22T05:38:29.820Z,3.08
2022-09-22T05:40:56.627Z,2.80
2022-09-22T05:43:23.324Z,3.17
2022-09-22T05:45:50.582Z,3.80
2022-09-22T05:48:17.297Z,3.13
2022-09-22T05:50:45.278Z,2.85
2022-09-22T05:53:13.042Z,4.32
2022-09-22T05:55:40.872Z,4.18
2022-09-22T05:58:11.713Z,3.63
2022-09-22T06:00:39.987Z,4.00
2022-09-22T06:03:07.318Z,4.97
2022-09-22T06:05:36.710Z,3.33
2022-09-22T06:08:06.454Z,3.08
2022-09-22T06:10:38.432Z,2.60
2022-09-22T06:13:08.866Z,2.95
2022-09-22T06:15:36.652Z,3.05
2022-09-22T06:18:09.116Z,4.18
2022-09-22T06:20:38.834Z,2.65
2022-09-22T06:23:05.536Z,4.88
2022-09-22T06:25:32.274Z,2.70
2022-09-22T06:28:09.652Z,2.38
2022-09-22T06:30:41.009Z,3.13
2022-09-22T06:33:10.118Z,3.60
2022-09-22T06:35:37.694Z,2.28
2022-09-22T06:38:07.099Z,2.83
2022-09-22T06:40:38.357Z,2.83
2022-09-22T06:43:12.778Z,2.13
2022-09-22T06:45:40.821Z,2.17
2022-09-22T06:48:10.647Z,1.70
2022-09-22T06:50:40.727Z,2.30
2022-09-22T06:53:11.638Z,2.47
2022-09-22T06:55:41.507Z,3.28
2022-09-22T06:58:10.390Z,1.92
2022-09-22T07:00:37.384Z,2.08
2022-09-22T07:03:15.128Z,2.08
2022-09-22T07:05:43.409Z,2.30
2022-09-22T07:08:10.114Z,3.05
2022-09-22T07:10:38.017Z,2.47
2022-09-22T07:13:06.174Z,2.92
2022-09-22T07:15:34.860Z,2.67
2022-09-22T07:18:02.001Z,1.52
2022-09-22T07:20:28.994Z,1.55
2022-09-22T07:23:00.323Z,2.38
2022-09-22T07:25:29.193Z,3.05
2022-09-22T07:28:04.969Z,3.35
2022-09-22T07:30:36.215Z,3.88
2022-09-22T07:33:02.925Z,3.95
2022-09-22T07:35:29.614Z,2.42
2022-09-22T07:37:56.998Z,1.92
2022-09-22T07:40:23.846Z,3.78
2022-09-22T07:42:50.898Z,3.15
2022-09-22T07:45:17.616Z,2.83
2022-09-22T07:48:04.325Z,2.70
2022-09-22T07:50:31.220Z,4.30
2022-09-22T07:52:57.967Z,3.90
2022-09-22T07:55:25.329Z,3.08
2022-09-22T07:57:58.110Z,4.57
2022-09-22T08:00:32.822Z,3.35
2022-09-22T08:03:01.347Z,2.10
2022-09-22T08:05:29.528Z,3.03
2022-09-22T08:07:58.262Z,2.05
2022-09-22T08:10:26.283Z,1.85
2022-09-22T08:12:58.139Z,2.65
2022-09-22T08:15:27.299Z,2.60
2022-09-22T08:17:58.239Z,2.40
2022-09-22T08:20:29.711Z,2.25
2022-09-22T08:23:03.419Z,1.13
2022-09-22T08:25:30.726Z,0.82
2022-09-22T08:28:00.190Z,3.33
2022-09-22T08:30:27.036Z,2.97
2022-09-22T08:32:54.003Z,1.55
2022-09-22T08:35:20.756Z,4.10
2022-09-22T08:37:50.729Z,2.83
2022-09-22T08:40:23.754Z,1.25
2022-09-22T08:42:54.277Z,0.70
2022-09-22T08:45:35.087Z,1.23
2022-09-22T08:48:37.869Z,1.88
2022-09-22T08:51:39.025Z,1.00
2022-09-22T08:54:06.792Z,0.88
2022-09-22T08:57:33.986Z,1.95
2022-09-22T09:00:07.723Z,0.88
2022-09-22T09:06:04.251Z,0.60
2022-09-22T09:09:41.637Z,0.77
2022-09-22T09:12:46.679Z,1.23
2022-09-22T09:15:19.833Z,0.60
2022-09-22T09:17:48.235Z,2.25
2022-09-22T09:20:53.799Z,2.63
2022-09-22T09:26:21.209Z,2.03
2022-09-22T09:29:03.846Z,1.65
2022-09-22T09:31:41.229Z,1.38
2022-09-22T09:34:17.920Z,1.05
2022-09-22T09:36:55.404Z,1.95
2022-09-22T09:39:44.780Z,1.17
2022-09-22T09:42:33.154Z,1.35
2022-09-22T09:45:02.730Z,2.28
2022-09-22T09:47:43.653Z,2.47
2022-09-22T09:50:15.339Z,1.10
2022-09-22T09:52:42.267Z,0.68
2022-09-22T09:55:27.736Z,0.95
2022-09-22T09:58:09.541Z,1.88
2022-09-22T10:00:58.276Z,4.03
2022-09-22T10:03:54.678Z,3.15
2022-09-22T10:06:26.409Z,2.78
2022-09-22T10:08:53.297Z,2.28
2022-09-22T10:11:32.192Z,1.80
2022-09-22T10:13:59.461Z,1.95
2022-09-22T10:16:31.639Z,1.83
2022-09-22T10:19:26.032Z,0.98
2022-09-22T10:24:32.582Z,0.80
2022-09-22T10:27:02.474Z,1.25
2022-09-22T10:29:32.085Z,0.65
2022-09-22T10:32:15.981Z,1.25
2022-09-22T10:34:48.393Z,1.02
2022-09-22T10:37:20.814Z,1.20
2022-09-22T10:39:52.152Z,0.88
2022-09-22T10:42:37.499Z,0.65
2022-09-22T10:45:15.293Z,1.20
2022-09-22T10:51:20.862Z,1.80
2022-09-22T10:54:30.177Z,1.92
2022-09-22T10:57:09.279Z,1.40
2022-09-22T11:00:08.889Z,1.60
2022-09-22T11:03:00.573Z,0.52
2022-09-22T11:06:35.973Z,0.75
2022-09-22T11:09:55.022Z,0.57
2022-09-22T11:13:01.768Z,0.93
2022-09-22T11:15:56.505Z,0.50
2022-09-22T11:18:55.923Z,0.90
2022-09-22T11:21:50.791Z,1.30
2022-09-22T11:24:51.842Z,1.23
2022-09-22T11:27:41.603Z,0.70
2022-09-22T11:30:22.065Z,0.85
2022-09-22T11:33:25.964Z,1.13
2022-09-22T11:36:11.169Z,1.37
2022-09-22T11:39:02.692Z,0.85
2022-09-22T11:42:11.077Z,0.70
2022-09-22T11:45:07.935Z,1.23
2022-09-22T11:48:11.269Z,0.47
2022-09-22T11:51:11.125Z,0.70
2022-09-22T11:54:25.490Z,0.77
2022-09-22T11:57:04.340Z,0.80
2022-09-22T12:00:07.228Z,0.98
2022-09-22T12:03:03.544Z,1.17
2022-09-22T12:05:42.161Z,1.63
2022-09-22T12:08:23.678Z,1.05
2022-09-22T12:10:52.587Z,0.80
2022-09-22T12:13:27.327Z,0.80
2022-09-22T12:16:41.690Z,1.33
2022-09-22T12:19:24.484Z,0.40
2022-09-22T12:22:25.643Z,1.15
2022-09-22T12:24:52.588Z,1.75
2022-09-22T12:27:26.081Z,0.98
2022-09-22T12:30:03.075Z,1.00
2022-09-22T12:32:38.101Z,1.05
2022-09-22T12:35:06.831Z,1.40
2022-09-22T12:37:39.872Z,2.03
2022-09-22T12:40:28.991Z,1.17
2022-09-22T12:42:56.190Z,2.13
2022-09-22T12:45:41.773Z,1.30
2022-09-22T12:48:14.747Z,0.98
2022-09-22T12:50:45.218Z,0.57
2022-09-22T12:53:20.973Z,1.33
2022-09-22T12:55:49.932Z,2.40
2022-09-22T12:58:23.497Z,0.95
2022-09-22T13:00:56.229Z,0.57
2022-09-22T13:03:26.092Z,0.40
2022-09-22T13:06:06.032Z,0.43
2022-09-22T13:08:33.011Z,1.48
2022-09-22T13:11:06.399Z,0.60
2022-09-22T13:13:43.673Z,1.80
2022-09-22T13:16:16.988Z,0.60
2022-09-22T13:18:59.044Z,0.65
2022-09-22T13:21:32.879Z,0.93
2022-09-22T13:24:02.837Z,1.05
2022-09-22T13:26:38.788Z,0.43
2022-09-22T13:29:15.669Z,2.13
2022-09-22T13:31:52.853Z,3.22
2022-09-22T13:34:35.350Z,0.50
2022-09-22T13:37:17.892Z,0.50
2022-09-22T13:39:50.561Z,1.10
2022-09-22T13:42:31.434Z,0.50
2022-09-22T13:45:06.326Z,1.02
2022-09-22T13:47:35.098Z,0.88
2022-09-22T13:50:08.180Z,0.77
2022-09-22T13:52:38.606Z,0.35
2022-09-22T13:55:14.991Z,0.60
2022-09-22T13:57:42.616Z,0.70
2022-09-22T14:00:27.660Z,1.25
2022-09-22T14:03:01.365Z,0.45
2022-09-22T14:08:20.311Z,0.93
2022-09-22T14:10:47.738Z,0.50
2022-09-22T14:13:52.586Z,0.98
2022-09-22T14:16:56.565Z,1.58
2022-09-22T14:19:34.081Z,0.30
2022-09-22T14:22:17.600Z,0.50
2022-09-22T14:24:50.743Z,0.90
2022-09-22T14:27:39.607Z,3.47
2022-09-22T14:30:17.799Z,0.50
2022-09-22T14:32:52.961Z,1.98
2022-09-22T14:35:36.291Z,2.15
2022-09-22T14:38:18.081Z,0.80
2022-09-22T14:40:55.365Z,0.60
2022-09-22T14:43:37.911Z,1.17
2022-09-22T14:46:33.727Z,0.73
2022-09-22T14:49:40.980Z,0.47
2022-09-22T14:52:30.024Z,0.68
2022-09-22T14:55:06.997Z,1.50
2022-09-22T14:57:35.645Z,1.48
2022-09-22T15:00:21.399Z,0.70
2022-09-22T15:02:54.355Z,0.80
2022-09-22T15:05:30.342Z,0.50
2022-09-22T15:07:58.720Z,0.47
2022-09-22T15:10:31.726Z,0.75
2022-09-22T15:13:29.668Z,0.57
2022-09-22T15:15:57.011Z,0.52
2022-09-22T15:18:26.295Z,0.90
2022-09-22T15:21:11.896Z,0.50
2022-09-22T15:23:46.952Z,0.88
2022-09-22T15:26:25.605Z,1.33
2022-09-22T15:28:58.983Z,1.27
2022-09-22T15:31:29.595Z,1.02
2022-09-22T15:34:02.930Z,1.08
2022-09-22T15:36:32.978Z,1.05
2022-09-22T15:39:21.561Z,0.80
2022-09-22T15:41:48.878Z,1.42
2022-09-22T15:44:16.668Z,0.77
2022-09-22T15:46:51.257Z,1.00
2022-09-22T15:49:26.439Z,0.95
2022-09-22T15:51:55.922Z,0.65
2022-09-22T15:54:24.966Z,1.00
2022-09-22T15:56:55.045Z,0.80
2022-09-22T15:59:28.702Z,0.75
2022-09-22T16:01:57.184Z,0.63
2022-09-22T16:04:24.275Z,1.13
2022-09-22T16:06:58.564Z,0.88
2022-09-22T16:09:25.307Z,0.60
2022-09-22T16:11:52.057Z,0.75
2022-09-22T16:14:18.807Z,1.73
2022-09-22T16:16:45.540Z,1.08
2022-09-22T16:19:12.564Z,1.20
2022-09-22T16:21:49.869Z,2.15
2022-09-22T16:24:16.906Z,0.60
2022-09-22T16:26:43.884Z,0.57
2022-09-22T16:29:11.288Z,1.13
2022-09-22T16:31:38.124Z,0.52
2022-09-22T16:34:06.554Z,1.58
2022-09-22T16:36:37.062Z,1.15
2022-09-22T16:39:05.448Z,0.93
2022-09-22T16:41:35.289Z,1.40
2022-09-22T16:44:04.026Z,1.63
2022-09-22T16:46:35.586Z,2.17
2022-09-22T16:49:07.355Z,1.23
2022-09-22T16:51:43.847Z,1.75
2022-09-22T16:54:13.747Z,1.52
2022-09-22T16:56:49.521Z,2.63
2022-09-22T16:59:19.495Z,1.75
2022-09-22T17:01:46.646Z,1.75
2022-09-22T17:04:16.416Z,2.35
2022-09-22T17:06:44.240Z,3.03
2022-09-22T17:09:12.769Z,1.45
2022-09-22T17:11:42.617Z,1.95
2022-09-22T17:14:24.469Z,1.90
2022-09-22T17:16:53.880Z,2.22
2022-09-22T17:19:27.749Z,2.30
2022-09-22T17:21:56.364Z,4.40
2022-09-22T17:24:25.424Z,5.63
2022-09-22T17:26:58.208Z,3.95
2022-09-22T17:29:28.274Z,3.95
2022-09-22T17:31:59.719Z,6.25
2022-09-22T17:34:28.617Z,3.80
2022-09-22T17:36:57.379Z,2.75
2022-09-22T17:39:26.739Z,3.20
2022-09-22T17:41:55.035Z,3.40
2022-09-22T17:44:22.906Z,3.80
2022-09-22T17:47:11.099Z,5.80
2022-09-22T17:49:58.439Z,4.85
2022-09-22T17:52:28.567Z,3.45
2022-09-22T17:55:11.125Z,2.95
2022-09-22T17:57:44.178Z,3.67
2022-09-22T18:00:19.478Z,3.40
2022-09-22T18:02:47.436Z,3.63
2022-09-22T18:05:17.518Z,3.85
2022-09-22T18:07:44.458Z,2.88
2022-09-22T18:10:15.166Z,3.97
2022-09-22T18:12:42.754Z,7.40
2022-09-22T18:15:13.238Z,4.95
2022-09-22T18:17:43.274Z,4.80
2022-09-22T18:20:14.730Z,4.78
2022-09-22T18:22:47.556Z,5.13
2022-09-22T18:25:15.137Z,7.82
2022-09-22T18:27:42.384Z,6.65
2022-09-22T18:30:15.320Z,6.78
2022-09-22T18:32:42.740Z,5.72
2022-09-22T18:35:09.649Z,7.75
2022-09-22T18:37:36.384Z,5.72
2022-09-22T18:40:04.194Z,7.03
2022-09-22T18:42:32.724Z,6.15
2022-09-22T18:44:59.520Z,7.00
2022-09-22T18:47:26.264Z,4.80
2022-09-22T18:49:52.989Z,6.00
2022-09-22T18:52:23.957Z,6.20
2022-09-22T18:54:55.926Z,5.65
2022-09-22T18:57:28.412Z,5.80
2022-09-22T18:59:57.743Z,9.00
2022-09-22T19:02:25.915Z,8.32
2022-09-22T19:04:52.717Z,10.23
2022-09-22T19:07:41.946Z,9.65
2022-09-22T19:10:13.677Z,6.35
2022-09-22T19:12:40.680Z,8.07
2022-09-22T19:15:15.379Z,7.40
2022-09-22T19:17:44.861Z,5.72
2022-09-22T19:20:20.879Z,7.82
2022-09-22T19:22:49.229Z,7.05
2022-09-22T19:25:17.097Z,7.35
2022-09-22T19:27:43.872Z,7.22
2022-09-22T19:30:11.733Z,7.45
2022-09-22T19:32:40.043Z,8.82
2022-09-22T19:35:09.829Z,8.85
2022-09-22T19:37:37.023Z,7.20
2022-09-22T19:40:06.663Z,8.85
2022-09-22T19:42:39.976Z,8.25
2022-09-22T19:45:08.499Z,6.82
2022-09-22T19:47:35.437Z,7.35
2022-09-22T19:50:02.253Z,7.88
2022-09-22T19:52:28.974Z,8.10
2022-09-22T19:54:55.669Z,7.70
2022-09-22T19:57:22.414Z,7.53
2022-09-22T19:59:49.171Z,8.05
2022-09-22T20:02:15.897Z,7.57
2022-09-22T20:04:42.914Z,8.02
2022-09-22T20:07:10.809Z,8.05
2022-09-22T20:09:37.664Z,9.18
2022-09-22T20:12:05.157Z,9.98
2022-09-22T20:14:32.136Z,9.63
2022-09-22T20:17:06.631Z,8.80
2022-09-22T20:19:38.544Z,9.77
2022-09-22T20:22:27.882Z,9.05
2022-09-22T20:25:05.103Z,10.93
2022-09-22T20:27:36.755Z,11.02
2022-09-22T20:30:04.797Z,7.75
2022-09-22T20:32:32.099Z,9.85
2022-09-22T20:34:58.901Z,12.05
2022-09-22T20:37:25.716Z,8.40
2022-09-22T20:39:52.829Z,9.45
2022-09-22T20:42:20.537Z,11.93
2022-09-22T20:44:48.414Z,8.55
2022-09-22T20:47:17.980Z,8.23
2022-09-22T20:49:50.641Z,8.85
2022-09-22T20:52:20.006Z,9.25
2022-09-22T20:54:47.835Z,8.70
2022-09-22T20:57:14.805Z,7.57
2022-09-22T20:59:43.885Z,8.20
2022-09-22T21:02:12.881Z,11.45
2022-09-22T21:04:39.838Z,9.00
2022-09-22T21:07:07.339Z,9.05
2022-09-22T21:09:52.471Z,8.35
2022-09-22T21:12:19.178Z,7.25
2022-09-22T21:14:46.107Z,6.38
2022-09-22T21:17:13.746Z,10.02
2022-09-22T21:19:40.792Z,6.43
2022-09-22T21:22:07.548Z,8.35
2022-09-22T21:24:34.286Z,8.45
2022-09-22T21:27:01.094Z,7.90
2022-09-22T21:29:29.376Z,6.63
2022-09-22T21:31:57.874Z,6.75
2022-09-22T21:34:25.265Z,6.78
2022-09-22T21:36:52.350Z,8.98
2022-09-22T21:39:19.124Z,8.25
2022-09-22T21:41:45.909Z,7.40
2022-09-22T21:44:13.199Z,7.60
2022-09-22T21:46:44.708Z,7.07
2022-09-22T21:49:11.933Z,7.53
2022-09-22T21:51:44.092Z,6.10
2022-09-22T21:54:18.187Z,7.25
2022-09-22T21:56:45.331Z,6.75
2022-09-22T21:59:13.344Z,7.18
2022-09-22T22:01:42.218Z,6.93
2022-09-22T22:04:13.474Z,7.55
2022-09-22T22:06:45.657Z,7.85
2022-09-22T22:09:15.534Z,7.80
2022-09-22T22:11:48.135Z,7.65
2022-09-22T22:14:18.419Z,7.03
2022-09-22T22:16:49.117Z,8.05
2022-09-22T22:19:20.256Z,7.07
2022-09-22T22:21:50.714Z,7.15
2022-09-22T22:24:28.454Z,7.68
2022-09-22T22:26:57.994Z,6.13
2022-09-22T22:29:27.383Z,7.13
2022-09-22T22:31:54.610Z,8.80
2022-09-22T22:34:25.675Z,6.82
2022-09-22T22:36:54.170Z,8.93
2022-09-22T22:39:21.481Z,7.47
2022-09-22T22:41:54.080Z,7.47
2022-09-22T22:44:20.901Z,6.90
2022-09-22T22:46:47.710Z,7.50
2022-09-22T22:49:14.642Z,6.80
2022-09-22T22:51:43.333Z,6.70
2022-09-22T22:54:12.567Z,5.10
2022-09-22T22:56:42.476Z,5.75
2022-09-22T22:59:10.460Z,6.47
2022-09-22T23:01:37.653Z,6.47
2022-09-22T23:04:07.617Z,6.60
2022-09-22T23:06:38.966Z,4.95
2022-09-22T23:09:10.002Z,4.45
2022-09-22T23:11:40.022Z,4.90
2022-09-22T23:14:11.380Z,5.15
2022-09-22T23:16:44.937Z,8.38
2022-09-22T23:19:17.556Z,5.78
2022-09-22T23:21:45.263Z,4.78
2022-09-22T23:24:16.321Z,5.00
2022-09-22T23:26:45.105Z,5.10
2022-09-22T23:29:12.381Z,5.45
2022-09-22T23:31:39.315Z,5.13
2022-09-22T23:34:06.023Z,5.88
2022-09-22T23:36:32.755Z,5.28
2022-09-22T23:39:03.461Z,5.32
2022-09-22T23:41:36.440Z,5.45
2022-09-22T23:44:06.622Z,5.32
2022-09-22T23:46:34.367Z,6.70
2022-09-22T23:49:02.396Z,4.10
2022-09-22T23:51:29.865Z,4.88
2022-09-22T23:53:57.536Z,7.22
2022-09-22T23:56:25.415Z,7.38
2022-09-22T23:58:52.848Z,11.40
